sensor_id;sensor_type;location;lat;lon;timestamp;P1;durP1;ratioP1;P2;durP2;ratioP2
41837;SDS011;27511;52.042;5.178;2022-11-20T00:01:27;12.73;;;7.22;;
41837;SDS011;27511;52.042;5.178;2022-11-20T00:03:54;16.40;;;7.38;;
41837;SDS011;27511;52.042;5.178;2022-11-20T00:06:22;15.48;;;8.23;;
41837;SDS011;27511;52.042;5.178;2022-11-20T00:08:49;15.32;;;7.25;;
41837;SDS011;27511;52.042;5.178;2022-11-20T00:11:16;15.38;;;9.18;;
41837;SDS011;27511;52.042;5.178;2022-11-20T00:13:44;15.80;;;8.15;;
41837;SDS011;27511;52.042;5.178;2022-11-20T00:16:11;12.65;;;6.82;;
41837;SDS011;27511;52.042;5.178;2022-11-20T00:18:37;13.75;;;6.97;;
41837;SDS011;27511;52.042;5.178;2022-11-20T00:21:04;15.77;;;7.30;;
41837;SDS011;27511;52.042;5.178;2022-11-20T00:23:31;15.95;;;8.45;;
41837;SDS011;27511;52.042;5.178;2022-11-20T00:26:00;13.70;;;7.97;;
41837;SDS011;27511;52.042;5.178;2022-11-20T00:28:30;10.57;;;5.57;;
41837;SDS011;27511;52.042;5.178;2022-11-20T00:31:12;15.32;;;8.30;;
41837;SDS011;27511;52.042;5.178;2022-11-20T00:33:39;15.05;;;7.47;;
41837;SDS011;27511;52.042;5.178;2022-11-20T00:36:16;13.95;;;7.32;;
41837;SDS011;27511;52.042;5.178;2022-11-20T00:38:43;18.27;;;9.52;;
41837;SDS011;27511;52.042;5.178;2022-11-20T00:41:10;16.85;;;7.70;;
41837;SDS011;27511;52.042;5.178;2022-11-20T00:43:37;13.07;;;7.57;;
41837;SDS011;27511;52.042;5.178;2022-11-20T00:46:04;17.58;;;8.55;;
41837;SDS011;27511;52.042;5.178;2022-11-20T00:48:31;14.05;;;8.32;;
41837;SDS011;27511;52.042;5.178;2022-11-20T00:50:57;17.45;;;8.77;;
41837;SDS011;27511;52.042;5.178;2022-11-20T00:53:23;16.10;;;7.25;;
41837;SDS011;27511;52.042;5.178;2022-11-20T00:55:52;17.77;;;8.75;;
41837;SDS011;27511;52.042;5.178;2022-11-20T00:58:24;17.13;;;9.00;;
41837;SDS011;27511;52.042;5.178;2022-11-20T01:00:59;15.48;;;7.63;;
41837;SDS011;27511;52.042;5.178;2022-11-20T01:03:25;18.17;;;8.30;;
41837;SDS011;27511;52.042;5.178;2022-11-20T01:05:51;14.63;;;7.63;;
41837;SDS011;27511;52.042;5.178;2022-11-20T01:08:17;13.30;;;7.85;;
41837;SDS011;27511;52.042;5.178;2022-11-20T01:10:42;15.15;;;7.60;;
41837;SDS011;27511;52.042;5.178;2022-11-20T01:13:07;14.07;;;8.18;;
41837;SDS011;27511;52.042;5.178;2022-11-20T01:15:51;13.45;;;7.15;;
41837;SDS011;27511;52.042;5.178;2022-11-20T01:18:17;14.68;;;7.50;;
41837;SDS011;27511;52.042;5.178;2022-11-20T01:20:43;14.20;;;7.43;;
41837;SDS011;27511;52.042;5.178;2022-11-20T01:23:08;13.80;;;7.45;;
41837;SDS011;27511;52.042;5.178;2022-11-20T01:25:34;13.25;;;7.50;;
41837;SDS011;27511;52.042;5.178;2022-11-20T01:27:59;14.18;;;8.52;;
41837;SDS011;27511;52.042;5.178;2022-11-20T01:30:25;19.98;;;8.60;;
41837;SDS011;27511;52.042;5.178;2022-11-20T01:32:50;12.60;;;7.35;;
41837;SDS011;27511;52.042;5.178;2022-11-20T01:35:16;13.50;;;7.18;;
41837;SDS011;27511;52.042;5.178;2022-11-20T01:37:41;17.40;;;8.05;;
41837;SDS011;27511;52.042;5.178;2022-11-20T01:40:07;15.95;;;8.02;;
41837;SDS011;27511;52.042;5.178;2022-11-20T01:42:33;14.25;;;7.45;;
41837;SDS011;27511;52.042;5.178;2022-11-20T01:48:17;17.63;;;8.32;;
41837;SDS011;27511;52.042;5.178;2022-11-20T01:50:44;15.32;;;7.68;;
41837;SDS011;27511;52.042;5.178;2022-11-20T01:53:12;11.73;;;6.93;;
41837;SDS011;27511;52.042;5.178;2022-11-20T01:55:41;15.75;;;8.05;;
41837;SDS011;27511;52.042;5.178;2022-11-20T01:58:20;13.55;;;7.50;;
41837;SDS011;27511;52.042;5.178;2022-11-20T02:00:49;13.07;;;7.93;;
41837;SDS011;27511;52.042;5.178;2022-11-20T02:03:15;15.88;;;8.15;;
41837;SDS011;27511;52.042;5.178;2022-11-20T02:05:45;11.63;;;6.97;;
41837;SDS011;27511;52.042;5.178;2022-11-20T02:08:16;13.35;;;7.07;;
41837;SDS011;27511;52.042;5.178;2022-11-20T02:10:43;13.40;;;7.15;;
41837;SDS011;27511;52.042;5.178;2022-11-20T02:13:08;17.35;;;7.57;;
41837;SDS011;27511;52.042;5.178;2022-11-20T02:15:53;15.25;;;7.80;;
41837;SDS011;27511;52.042;5.178;2022-11-20T02:18:19;17.58;;;8.32;;
41837;SDS011;27511;52.042;5.178;2022-11-20T02:20:47;15.50;;;7.07;;
41837;SDS011;27511;52.042;5.178;2022-11-20T02:23:16;13.15;;;6.93;;
41837;SDS011;27511;52.042;5.178;2022-11-20T02:26:03;12.55;;;7.15;;
41837;SDS011;27511;52.042;5.178;2022-11-20T02:28:33;12.60;;;7.88;;
41837;SDS011;27511;52.042;5.178;2022-11-20T02:30:58;15.70;;;7.50;;
41837;SDS011;27511;52.042;5.178;2022-11-20T02:33:24;15.00;;;7.25;;
41837;SDS011;27511;52.042;5.178;2022-11-20T02:35:49;12.70;;;6.78;;
41837;SDS011;27511;52.042;5.178;2022-11-20T02:38:15;12.65;;;7.20;;
41837;SDS011;27511;52.042;5.178;2022-11-20T02:40:41;12.93;;;7.28;;
41837;SDS011;27511;52.042;5.178;2022-11-20T02:43:06;10.75;;;6.45;;
41837;SDS011;27511;52.042;5.178;2022-11-20T02:45:33;17.75;;;7.80;;
41837;SDS011;27511;52.042;5.178;2022-11-20T02:47:58;14.60;;;7.82;;
41837;SDS011;27511;52.042;5.178;2022-11-20T02:50:24;14.05;;;7.03;;
41837;SDS011;27511;52.042;5.178;2022-11-20T02:52:50;16.73;;;6.75;;
41837;SDS011;27511;52.042;5.178;2022-11-20T02:55:15;12.80;;;6.68;;
41837;SDS011;27511;52.042;5.178;2022-11-20T02:57:41;13.55;;;6.50;;
41837;SDS011;27511;52.042;5.178;2022-11-20T03:00:07;13.00;;;7.45;;
41837;SDS011;27511;52.042;5.178;2022-11-20T03:02:33;15.10;;;7.72;;
41837;SDS011;27511;52.042;5.178;2022-11-20T03:04:58;12.50;;;7.05;;
41837;SDS011;27511;52.042;5.178;2022-11-20T03:07:24;15.50;;;6.97;;
41837;SDS011;27511;52.042;5.178;2022-11-20T03:09:49;18.08;;;6.53;;
41837;SDS011;27511;52.042;5.178;2022-11-20T03:12:15;15.45;;;7.53;;
41837;SDS011;27511;52.042;5.178;2022-11-20T03:14:40;13.70;;;7.10;;
41837;SDS011;27511;52.042;5.178;2022-11-20T03:17:06;12.23;;;6.28;;
41837;SDS011;27511;52.042;5.178;2022-11-20T03:19:32;16.10;;;7.05;;
41837;SDS011;27511;52.042;5.178;2022-11-20T03:21:57;13.75;;;6.95;;
41837;SDS011;27511;52.042;5.178;2022-11-20T03:24:23;14.68;;;7.55;;
41837;SDS011;27511;52.042;5.178;2022-11-20T03:26:48;14.43;;;7.30;;
41837;SDS011;27511;52.042;5.178;2022-11-20T03:29:14;13.77;;;6.55;;
41837;SDS011;27511;52.042;5.178;2022-11-20T03:31:40;13.43;;;8.00;;
41837;SDS011;27511;52.042;5.178;2022-11-20T03:34:06;15.73;;;7.43;;
41837;SDS011;27511;52.042;5.178;2022-11-20T03:36:32;14.63;;;7.30;;
41837;SDS011;27511;52.042;5.178;2022-11-20T03:38:58;11.85;;;5.88;;
41837;SDS011;27511;52.042;5.178;2022-11-20T03:41:25;16.75;;;7.10;;
41837;SDS011;27511;52.042;5.178;2022-11-20T03:43:53;13.98;;;6.82;;
41837;SDS011;27511;52.042;5.178;2022-11-20T03:46:20;13.32;;;6.65;;
41837;SDS011;27511;52.042;5.178;2022-11-20T03:48:46;17.48;;;7.68;;
41837;SDS011;27511;52.042;5.178;2022-11-20T03:51:13;12.07;;;6.95;;
41837;SDS011;27511;52.042;5.178;2022-11-20T03:53:43;11.52;;;7.30;;
41837;SDS011;27511;52.042;5.178;2022-11-20T03:56:11;11.30;;;5.63;;
41837;SDS011;27511;52.042;5.178;2022-11-20T03:58:38;14.02;;;6.90;;
41837;SDS011;27511;52.042;5.178;2022-11-20T04:01:08;10.88;;;6.53;;
41837;SDS011;27511;52.042;5.178;2022-11-20T04:03:36;15.90;;;7.43;;
41837;SDS011;27511;52.042;5.178;2022-11-20T04:06:03;14.27;;;6.68;;
41837;SDS011;27511;52.042;5.178;2022-11-20T04:08:30;13.30;;;6.70;;
41837;SDS011;27511;52.042;5.178;2022-11-20T04:10:56;11.80;;;6.72;;
41837;SDS011;27511;52.042;5.178;2022-11-20T04:13:32;14.13;;;7.18;;
41837;SDS011;27511;52.042;5.178;2022-11-20T04:15:57;16.42;;;6.97;;
41837;SDS011;27511;52.042;5.178;2022-11-20T04:18:23;10.05;;;7.25;;
41837;SDS011;27511;52.042;5.178;2022-11-20T04:20:48;14.20;;;7.57;;
41837;SDS011;27511;52.042;5.178;2022-11-20T04:23:14;13.90;;;7.00;;
41837;SDS011;27511;52.042;5.178;2022-11-20T04:25:39;12.80;;;6.35;;
41837;SDS011;27511;52.042;5.178;2022-11-20T04:28:05;11.93;;;5.95;;
41837;SDS011;27511;52.042;5.178;2022-11-20T04:30:30;14.00;;;7.28;;
41837;SDS011;27511;52.042;5.178;2022-11-20T04:32:56;12.95;;;6.80;;
41837;SDS011;27511;52.042;5.178;2022-11-20T04:35:22;16.55;;;7.57;;
41837;SDS011;27511;52.042;5.178;2022-11-20T04:37:47;13.50;;;6.53;;
41837;SDS011;27511;52.042;5.178;2022-11-20T04:40:15;14.35;;;7.72;;
41837;SDS011;27511;52.042;5.178;2022-11-20T04:42:41;12.20;;;6.47;;
41837;SDS011;27511;52.042;5.178;2022-11-20T04:45:06;14.45;;;7.15;;
41837;SDS011;27511;52.042;5.178;2022-11-20T04:47:32;12.43;;;6.28;;
41837;SDS011;27511;52.042;5.178;2022-11-20T04:49:58;13.55;;;7.22;;
41837;SDS011;27511;52.042;5.178;2022-11-20T04:52:23;12.20;;;6.80;;
41837;SDS011;27511;52.042;5.178;2022-11-20T04:54:49;16.52;;;7.45;;
41837;SDS011;27511;52.042;5.178;2022-11-20T04:57:17;14.27;;;6.65;;
41837;SDS011;27511;52.042;5.178;2022-11-20T04:59:43;11.88;;;5.90;;
41837;SDS011;27511;52.042;5.178;2022-11-20T05:02:09;12.00;;;6.60;;
41837;SDS011;27511;52.042;5.178;2022-11-20T05:04:34;11.73;;;6.47;;
41837;SDS011;27511;52.042;5.178;2022-11-20T05:07:00;14.38;;;6.63;;
41837;SDS011;27511;52.042;5.178;2022-11-20T05:09:26;14.55;;;6.75;;
41837;SDS011;27511;52.042;5.178;2022-11-20T05:11:51;16.73;;;7.50;;
41837;SDS011;27511;52.042;5.178;2022-11-20T05:14:17;13.23;;;6.30;;
41837;SDS011;27511;52.042;5.178;2022-11-20T05:16:42;11.63;;;6.15;;
41837;SDS011;27511;52.042;5.178;2022-11-20T05:19:08;13.05;;;6.22;;
41837;SDS011;27511;52.042;5.178;2022-11-20T05:21:33;14.93;;;7.80;;
41837;SDS011;27511;52.042;5.178;2022-11-20T05:23:59;16.40;;;6.43;;
41837;SDS011;27511;52.042;5.178;2022-11-20T05:26:24;12.85;;;6.50;;
41837;SDS011;27511;52.042;5.178;2022-11-20T05:28:50;12.05;;;6.32;;
41837;SDS011;27511;52.042;5.178;2022-11-20T05:31:20;12.00;;;6.65;;
41837;SDS011;27511;52.042;5.178;2022-11-20T05:33:49;14.55;;;8.18;;
41837;SDS011;27511;52.042;5.178;2022-11-20T05:36:15;12.23;;;6.97;;
41837;SDS011;27511;52.042;5.178;2022-11-20T05:38:42;14.98;;;7.30;;
41837;SDS011;27511;52.042;5.178;2022-11-20T05:43:36;14.60;;;7.05;;
41837;SDS011;27511;52.042;5.178;2022-11-20T05:46:03;14.75;;;7.07;;
41837;SDS011;27511;52.042;5.178;2022-11-20T05:48:30;14.90;;;6.97;;
41837;SDS011;27511;52.042;5.178;2022-11-20T05:50:59;12.60;;;7.18;;
41837;SDS011;27511;52.042;5.178;2022-11-20T05:53:26;12.02;;;6.18;;
41837;SDS011;27511;52.042;5.178;2022-11-20T05:55:56;14.70;;;6.82;;
41837;SDS011;27511;52.042;5.178;2022-11-20T05:58:33;15.10;;;7.15;;
41837;SDS011;27511;52.042;5.178;2022-11-20T06:01:09;13.93;;;7.25;;
41837;SDS011;27511;52.042;5.178;2022-11-20T06:03:45;16.40;;;8.05;;
41837;SDS011;27511;52.042;5.178;2022-11-20T06:06:12;9.50;;;5.70;;
41837;SDS011;27511;52.042;5.178;2022-11-20T06:08:39;15.25;;;7.10;;
41837;SDS011;27511;52.042;5.178;2022-11-20T06:11:05;15.13;;;7.38;;
41837;SDS011;27511;52.042;5.178;2022-11-20T06:13:32;13.48;;;7.72;;
41837;SDS011;27511;52.042;5.178;2022-11-20T06:15:58;14.07;;;6.65;;
41837;SDS011;27511;52.042;5.178;2022-11-20T06:18:25;12.70;;;6.82;;
41837;SDS011;27511;52.042;5.178;2022-11-20T06:20:58;13.20;;;7.20;;
41837;SDS011;27511;52.042;5.178;2022-11-20T06:23:32;11.70;;;6.47;;
41837;SDS011;27511;52.042;5.178;2022-11-20T06:26:05;9.45;;;6.20;;
41837;SDS011;27511;52.042;5.178;2022-11-20T06:28:32;12.77;;;6.05;;
41837;SDS011;27511;52.042;5.178;2022-11-20T06:30:58;15.30;;;6.82;;
41837;SDS011;27511;52.042;5.178;2022-11-20T06:33:24;14.38;;;6.85;;
41837;SDS011;27511;52.042;5.178;2022-11-20T06:35:50;14.55;;;7.68;;
41837;SDS011;27511;52.042;5.178;2022-11-20T06:38:16;14.40;;;7.03;;
41837;SDS011;27511;52.042;5.178;2022-11-20T06:40:42;17.73;;;7.80;;
41837;SDS011;27511;52.042;5.178;2022-11-20T06:43:08;14.63;;;7.93;;
41837;SDS011;27511;52.042;5.178;2022-11-20T06:45:36;15.70;;;6.60;;
41837;SDS011;27511;52.042;5.178;2022-11-20T06:48:02;15.52;;;7.45;;
41837;SDS011;27511;52.042;5.178;2022-11-20T06:50:29;13.73;;;7.60;;
41837;SDS011;27511;52.042;5.178;2022-11-20T06:52:54;11.60;;;6.90;;
41837;SDS011;27511;52.042;5.178;2022-11-20T06:55:20;12.50;;;7.00;;
41837;SDS011;27511;52.042;5.178;2022-11-20T06:57:45;12.70;;;6.00;;
41837;SDS011;27511;52.042;5.178;2022-11-20T07:00:11;11.98;;;6.57;;
41837;SDS011;27511;52.042;5.178;2022-11-20T07:02:37;12.93;;;7.10;;
41837;SDS011;27511;52.042;5.178;2022-11-20T07:05:03;14.00;;;6.72;;
41837;SDS011;27511;52.042;5.178;2022-11-20T07:07:28;14.77;;;7.30;;
41837;SDS011;27511;52.042;5.178;2022-11-20T07:09:54;13.38;;;6.60;;
41837;SDS011;27511;52.042;5.178;2022-11-20T07:12:19;11.77;;;7.05;;
41837;SDS011;27511;52.042;5.178;2022-11-20T07:14:45;11.88;;;6.38;;
41837;SDS011;27511;52.042;5.178;2022-11-20T07:17:11;15.80;;;8.10;;
41837;SDS011;27511;52.042;5.178;2022-11-20T07:19:37;13.20;;;6.13;;
41837;SDS011;27511;52.042;5.178;2022-11-20T07:22:02;16.67;;;8.30;;
41837;SDS011;27511;52.042;5.178;2022-11-20T07:24:28;15.40;;;7.80;;
41837;SDS011;27511;52.042;5.178;2022-11-20T07:26:53;12.73;;;7.72;;
41837;SDS011;27511;52.042;5.178;2022-11-20T07:29:19;14.35;;;6.30;;
41837;SDS011;27511;52.042;5.178;2022-11-20T07:31:44;14.88;;;7.40;;
41837;SDS011;27511;52.042;5.178;2022-11-20T07:34:10;16.15;;;7.68;;
41837;SDS011;27511;52.042;5.178;2022-11-20T07:36:35;19.48;;;8.20;;
41837;SDS011;27511;52.042;5.178;2022-11-20T07:39:01;17.35;;;7.43;;
41837;SDS011;27511;52.042;5.178;2022-11-20T07:41:26;15.27;;;7.30;;
41837;SDS011;27511;52.042;5.178;2022-11-20T07:43:52;14.02;;;7.60;;
41837;SDS011;27511;52.042;5.178;2022-11-20T07:46:18;12.77;;;6.93;;
41837;SDS011;27511;52.042;5.178;2022-11-20T07:48:43;14.30;;;6.88;;
41837;SDS011;27511;52.042;5.178;2022-11-20T07:51:09;15.90;;;7.57;;
41837;SDS011;27511;52.042;5.178;2022-11-20T07:53:34;13.45;;;6.20;;
41837;SDS011;27511;52.042;5.178;2022-11-20T07:56:00;14.98;;;7.78;;
41837;SDS011;27511;52.042;5.178;2022-11-20T07:58:28;14.82;;;8.60;;
41837;SDS011;27511;52.042;5.178;2022-11-20T08:00:54;17.88;;;8.13;;
41837;SDS011;27511;52.042;5.178;2022-11-20T08:03:20;14.95;;;7.88;;
41837;SDS011;27511;52.042;5.178;2022-11-20T08:05:46;17.17;;;8.73;;
41837;SDS011;27511;52.042;5.178;2022-11-20T08:08:11;18.25;;;8.13;;
41837;SDS011;27511;52.042;5.178;2022-11-20T08:10:37;11.88;;;7.78;;
41837;SDS011;27511;52.042;5.178;2022-11-20T08:13:02;14.65;;;7.45;;
41837;SDS011;27511;52.042;5.178;2022-11-20T08:15:50;15.02;;;7.22;;
41837;SDS011;27511;52.042;5.178;2022-11-20T08:18:16;16.13;;;9.60;;
41837;SDS011;27511;52.042;5.178;2022-11-20T08:20:42;14.65;;;8.20;;
41837;SDS011;27511;52.042;5.178;2022-11-20T08:23:08;18.88;;;8.43;;
41837;SDS011;27511;52.042;5.178;2022-11-20T08:25:34;18.80;;;9.32;;
41837;SDS011;27511;52.042;5.178;2022-11-20T08:28:01;18.20;;;9.02;;
41837;SDS011;27511;52.042;5.178;2022-11-20T08:30:32;15.10;;;9.05;;
41837;SDS011;27511;52.042;5.178;2022-11-20T08:33:02;18.45;;;9.80;;
41837;SDS011;27511;52.042;5.178;2022-11-20T08:35:32;18.20;;;8.65;;
41837;SDS011;27511;52.042;5.178;2022-11-20T08:38:02;18.27;;;9.60;;
41837;SDS011;27511;52.042;5.178;2022-11-20T08:40:31;16.33;;;8.30;;
41837;SDS011;27511;52.042;5.178;2022-11-20T08:42:57;23.55;;;15.90;;
41837;SDS011;27511;52.042;5.178;2022-11-20T08:45:23;15.75;;;8.98;;
41837;SDS011;27511;52.042;5.178;2022-11-20T08:47:49;19.40;;;9.57;;
41837;SDS011;27511;52.042;5.178;2022-11-20T08:50:15;21.95;;;10.55;;
41837;SDS011;27511;52.042;5.178;2022-11-20T08:52:41;23.15;;;10.60;;
41837;SDS011;27511;52.042;5.178;2022-11-20T08:55:07;19.98;;;10.38;;
41837;SDS011;27511;52.042;5.178;2022-11-20T08:57:36;19.02;;;10.23;;
41837;SDS011;27511;52.042;5.178;2022-11-20T09:00:03;20.30;;;9.70;;
41837;SDS011;27511;52.042;5.178;2022-11-20T09:02:30;17.80;;;10.43;;
41837;SDS011;27511;52.042;5.178;2022-11-20T09:04:57;21.17;;;11.48;;
41837;SDS011;27511;52.042;5.178;2022-11-20T09:07:22;20.48;;;9.88;;
41837;SDS011;27511;52.042;5.178;2022-11-20T09:09:48;20.20;;;10.30;;
41837;SDS011;27511;52.042;5.178;2022-11-20T09:12:13;21.58;;;11.32;;
41837;SDS011;27511;52.042;5.178;2022-11-20T09:14:39;23.05;;;10.57;;
41837;SDS011;27511;52.042;5.178;2022-11-20T09:17:05;28.42;;;10.63;;
41837;SDS011;27511;52.042;5.178;2022-11-20T09:19:32;17.30;;;10.32;;
41837;SDS011;27511;52.042;5.178;2022-11-20T09:21:58;21.25;;;11.27;;
41837;SDS011;27511;52.042;5.178;2022-11-20T09:24:25;20.80;;;10.90;;
41837;SDS011;27511;52.042;5.178;2022-11-20T09:26:51;19.65;;;10.88;;
41837;SDS011;27511;52.042;5.178;2022-11-20T09:29:16;20.05;;;11.52;;
41837;SDS011;27511;52.042;5.178;2022-11-20T09:31:42;19.65;;;10.85;;
41837;SDS011;27511;52.042;5.178;2022-11-20T09:34:07;22.30;;;10.65;;
41837;SDS011;27511;52.042;5.178;2022-11-20T09:36:33;23.80;;;11.88;;
41837;SDS011;27511;52.042;5.178;2022-11-20T09:38:58;24.13;;;12.07;;
41837;SDS011;27511;52.042;5.178;2022-11-20T09:42:13;22.17;;;11.43;;
41837;SDS011;27511;52.042;5.178;2022-11-20T09:49:45;21.83;;;11.98;;
41837;SDS011;27511;52.042;5.178;2022-11-20T09:52:38;26.38;;;14.15;;
41837;SDS011;27511;52.042;5.178;2022-11-20T09:55:24;20.40;;;10.52;;
41837;SDS011;27511;52.042;5.178;2022-11-20T09:57:50;20.38;;;11.90;;
41837;SDS011;27511;52.042;5.178;2022-11-20T10:00:17;22.70;;;13.13;;
41837;SDS011;27511;52.042;5.178;2022-11-20T10:02:53;22.75;;;12.63;;
41837;SDS011;27511;52.042;5.178;2022-11-20T10:05:27;20.67;;;10.60;;
41837;SDS011;27511;52.042;5.178;2022-11-20T10:13:40;23.65;;;12.45;;
41837;SDS011;27511;52.042;5.178;2022-11-20T10:28:10;23.95;;;13.52;;
41837;SDS011;27511;52.042;5.178;2022-11-20T10:30:40;23.85;;;12.43;;
41837;SDS011;27511;52.042;5.178;2022-11-20T10:33:17;20.98;;;11.63;;
41837;SDS011;27511;52.042;5.178;2022-11-20T10:35:49;24.42;;;12.55;;
41837;SDS011;27511;52.042;5.178;2022-11-20T10:38:21;23.48;;;12.90;;
41837;SDS011;27511;52.042;5.178;2022-11-20T10:40:54;27.65;;;14.15;;
41837;SDS011;27511;52.042;5.178;2022-11-20T10:43:44;27.63;;;13.48;;
41837;SDS011;27511;52.042;5.178;2022-11-20T10:46:15;23.85;;;12.73;;
41837;SDS011;27511;52.042;5.178;2022-11-20T10:48:45;24.95;;;12.82;;
41837;SDS011;27511;52.042;5.178;2022-11-20T10:56:33;23.48;;;12.48;;
41837;SDS011;27511;52.042;5.178;2022-11-20T11:01:57;27.63;;;13.45;;
41837;SDS011;27511;52.042;5.178;2022-11-20T11:07:22;26.65;;;12.73;;
41837;SDS011;27511;52.042;5.178;2022-11-20T11:12:19;25.75;;;12.23;;
41837;SDS011;27511;52.042;5.178;2022-11-20T11:14:51;30.33;;;14.32;;
41837;SDS011;27511;52.042;5.178;2022-11-20T11:17:19;28.30;;;15.25;;
41837;SDS011;27511;52.042;5.178;2022-11-20T11:22:24;26.83;;;13.68;;
41837;SDS011;27511;52.042;5.178;2022-11-20T11:24:53;30.40;;;14.80;;
41837;SDS011;27511;52.042;5.178;2022-11-20T11:27:19;29.65;;;15.50;;
41837;SDS011;27511;52.042;5.178;2022-11-20T11:29:45;26.30;;;14.60;;
41837;SDS011;27511;52.042;5.178;2022-11-20T11:34:40;29.75;;;14.75;;
41837;SDS011;27511;52.042;5.178;2022-11-20T11:37:11;31.35;;;14.65;;
41837;SDS011;27511;52.042;5.178;2022-11-20T11:39:42;32.65;;;15.45;;
41837;SDS011;27511;52.042;5.178;2022-11-20T11:42:11;29.85;;;14.10;;
41837;SDS011;27511;52.042;5.178;2022-11-20T11:44:46;33.53;;;15.73;;
41837;SDS011;27511;52.042;5.178;2022-11-20T11:47:32;26.73;;;14.68;;
41837;SDS011;27511;52.042;5.178;2022-11-20T11:52:36;27.60;;;14.60;;
41837;SDS011;27511;52.042;5.178;2022-11-20T11:55:31;27.85;;;14.85;;
41837;SDS011;27511;52.042;5.178;2022-11-20T11:58:04;30.95;;;15.35;;
41837;SDS011;27511;52.042;5.178;2022-11-20T12:03:50;35.35;;;16.52;;
41837;SDS011;27511;52.042;5.178;2022-11-20T12:06:39;29.73;;;15.82;;
41837;SDS011;27511;52.042;5.178;2022-11-20T12:09:10;32.00;;;16.38;;
41837;SDS011;27511;52.042;5.178;2022-11-20T12:14:21;37.08;;;15.13;;
41837;SDS011;27511;52.042;5.178;2022-11-20T12:17:01;45.63;;;16.95;;
41837;SDS011;27511;52.042;5.178;2022-11-20T12:19:29;38.05;;;17.15;;
41837;SDS011;27511;52.042;5.178;2022-11-20T12:22:12;36.63;;;16.80;;
41837;SDS011;27511;52.042;5.178;2022-11-20T12:30:10;35.42;;;15.30;;
41837;SDS011;27511;52.042;5.178;2022-11-20T12:41:10;43.10;;;17.92;;
41837;SDS011;27511;52.042;5.178;2022-11-20T12:44:37;49.70;;;17.00;;
41837;SDS011;27511;52.042;5.178;2022-11-20T12:47:51;36.35;;;16.60;;
41837;SDS011;27511;52.042;5.178;2022-11-20T12:53:19;36.22;;;17.10;;
41837;SDS011;27511;52.042;5.178;2022-11-20T13:04:24;35.75;;;16.05;;
41837;SDS011;27511;52.042;5.178;2022-11-20T13:06:52;33.78;;;17.75;;
41837;SDS011;27511;52.042;5.178;2022-11-20T13:09:20;38.22;;;17.63;;
41837;SDS011;27511;52.042;5.178;2022-11-20T13:12:04;36.38;;;17.08;;
41837;SDS011;27511;52.042;5.178;2022-11-20T13:20:19;39.17;;;18.23;;
41837;SDS011;27511;52.042;5.178;2022-11-20T13:22:46;40.00;;;17.67;;
41837;SDS011;27511;52.042;5.178;2022-11-20T13:25:29;40.45;;;19.30;;
41837;SDS011;27511;52.042;5.178;2022-11-20T13:28:03;39.88;;;18.98;;
41837;SDS011;27511;52.042;5.178;2022-11-20T13:30:36;46.53;;;19.60;;
41837;SDS011;27511;52.042;5.178;2022-11-20T13:36:21;43.78;;;17.08;;
41837;SDS011;27511;52.042;5.178;2022-11-20T13:38:49;42.38;;;19.20;;
41837;SDS011;27511;52.042;5.178;2022-11-20T13:41:33;40.78;;;18.15;;
41837;SDS011;27511;52.042;5.178;2022-11-20T13:46:46;44.50;;;19.60;;
41837;SDS011;27511;52.042;5.178;2022-11-20T13:57:59;35.72;;;16.70;;
41837;SDS011;27511;52.042;5.178;2022-11-20T14:01:08;38.70;;;18.10;;
41837;SDS011;27511;52.042;5.178;2022-11-20T14:03:47;40.03;;;18.88;;
41837;SDS011;27511;52.042;5.178;2022-11-20T14:06:24;43.53;;;19.30;;
41837;SDS011;27511;52.042;5.178;2022-11-20T14:08:56;37.35;;;19.30;;
41837;SDS011;27511;52.042;5.178;2022-11-20T14:11:24;41.25;;;18.55;;
41837;SDS011;27511;52.042;5.178;2022-11-20T14:13:52;46.28;;;20.05;;
41837;SDS011;27511;52.042;5.178;2022-11-20T14:16:21;43.92;;;18.52;;
41837;SDS011;27511;52.042;5.178;2022-11-20T14:18:48;45.33;;;19.83;;
41837;SDS011;27511;52.042;5.178;2022-11-20T14:21:27;41.45;;;18.55;;
41837;SDS011;27511;52.042;5.178;2022-11-20T14:24:06;40.03;;;18.05;;
41837;SDS011;27511;52.042;5.178;2022-11-20T14:26:36;42.78;;;19.70;;
41837;SDS011;27511;52.042;5.178;2022-11-20T14:29:10;39.75;;;17.55;;
41837;SDS011;27511;52.042;5.178;2022-11-20T14:31:41;36.97;;;17.88;;
41837;SDS011;27511;52.042;5.178;2022-11-20T14:34:15;38.80;;;18.30;;
41837;SDS011;27511;52.042;5.178;2022-11-20T14:36:46;41.38;;;19.63;;
41837;SDS011;27511;52.042;5.178;2022-11-20T14:39:19;44.00;;;19.58;;
41837;SDS011;27511;52.042;5.178;2022-11-20T14:41:50;45.80;;;18.55;;
41837;SDS011;27511;52.042;5.178;2022-11-20T14:44:17;46.95;;;20.83;;
41837;SDS011;27511;52.042;5.178;2022-11-20T14:46:42;44.03;;;19.33;;
41837;SDS011;27511;52.042;5.178;2022-11-20T14:49:08;46.25;;;20.40;;
41837;SDS011;27511;52.042;5.178;2022-11-20T14:51:39;46.55;;;18.45;;
41837;SDS011;27511;52.042;5.178;2022-11-20T14:54:11;42.00;;;19.58;;
41837;SDS011;27511;52.042;5.178;2022-11-20T14:56:37;40.67;;;19.10;;
41837;SDS011;27511;52.042;5.178;2022-11-20T14:59:02;39.95;;;17.98;;
41837;SDS011;27511;52.042;5.178;2022-11-20T15:01:29;44.65;;;20.13;;
41837;SDS011;27511;52.042;5.178;2022-11-20T15:04:11;41.75;;;20.15;;
41837;SDS011;27511;52.042;5.178;2022-11-20T15:06:37;42.10;;;18.52;;
41837;SDS011;27511;52.042;5.178;2022-11-20T15:09:14;38.13;;;17.90;;
41837;SDS011;27511;52.042;5.178;2022-11-20T15:11:40;40.08;;;18.40;;
41837;SDS011;27511;52.042;5.178;2022-11-20T15:14:20;43.80;;;18.42;;
41837;SDS011;27511;52.042;5.178;2022-11-20T15:16:46;44.28;;;19.95;;
41837;SDS011;27511;52.042;5.178;2022-11-20T15:19:22;43.55;;;20.13;;
41837;SDS011;27511;52.042;5.178;2022-11-20T15:21:49;42.72;;;18.45;;
41837;SDS011;27511;52.042;5.178;2022-11-20T15:24:15;41.42;;;18.20;;
41837;SDS011;27511;52.042;5.178;2022-11-20T15:26:41;42.83;;;19.60;;
41837;SDS011;27511;52.042;5.178;2022-11-20T15:29:08;42.38;;;17.58;;
41837;SDS011;27511;52.042;5.178;2022-11-20T15:31:36;44.35;;;19.40;;
41837;SDS011;27511;52.042;5.178;2022-11-20T15:34:02;40.63;;;17.50;;
41837;SDS011;27511;52.042;5.178;2022-11-20T15:36:31;41.55;;;18.83;;
41837;SDS011;27511;52.042;5.178;2022-11-20T15:38:57;37.28;;;18.25;;
41837;SDS011;27511;52.042;5.178;2022-11-20T15:41:22;41.13;;;17.83;;
41837;SDS011;27511;52.042;5.178;2022-11-20T15:43:48;38.55;;;17.02;;
41837;SDS011;27511;52.042;5.178;2022-11-20T15:46:14;37.53;;;16.70;;
41837;SDS011;27511;52.042;5.178;2022-11-20T15:48:42;29.88;;;16.02;;
41837;SDS011;27511;52.042;5.178;2022-11-20T15:54:01;34.65;;;16.48;;
41837;SDS011;27511;52.042;5.178;2022-11-20T15:56:39;32.22;;;16.63;;
41837;SDS011;27511;52.042;5.178;2022-11-20T15:59:05;31.63;;;16.90;;
41837;SDS011;27511;52.042;5.178;2022-11-20T16:01:30;38.00;;;17.73;;
41837;SDS011;27511;52.042;5.178;2022-11-20T16:03:56;36.30;;;17.60;;
41837;SDS011;27511;52.042;5.178;2022-11-20T16:06:22;34.75;;;17.17;;
41837;SDS011;27511;52.042;5.178;2022-11-20T16:08:47;35.42;;;16.77;;
41837;SDS011;27511;52.042;5.178;2022-11-20T16:11:14;33.47;;;16.20;;
41837;SDS011;27511;52.042;5.178;2022-11-20T16:13:41;35.13;;;17.40;;
41837;SDS011;27511;52.042;5.178;2022-11-20T16:19:02;38.78;;;17.77;;
41837;SDS011;27511;52.042;5.178;2022-11-20T16:21:28;39.42;;;17.65;;
41837;SDS011;27511;52.042;5.178;2022-11-20T16:26:25;35.90;;;18.52;;
41837;SDS011;27511;52.042;5.178;2022-11-20T16:28:50;31.15;;;16.85;;